Decoded Metar for LFGJ (DOLE in FRANCE) (IATA:DLE) | Meteo·Mobile Aviation Weather
aviador You're here:

LFGJ Decoded Metar

DOLE in FRANCE
Report Time2019-02-22 00:00:00
UTC Time2019-02-22 00:27:19
Flight Rules mvfr MVFR
Wind040° at 04 kt
W.Decomp.*RWY 05: 3.9 kt HW 0.7 kt LCW
W.Rank040° ranks 7
Current wind is below 040° avg. (7.0)
Visibility6000 m
Phenomena:N/A
Clouds:N/A
Expected CloudBase > 800 ft AGL from Temp-Dew spread
CeilingNone
Temp03°C (ISA -11)
Dew Point01°C (87% RH)
AAT-0.3°C
QNH1032 hPa
Density Alt-1,207 ft
Elevation643 ft
Report Wrong Elevation
Raw Report
LFGJ 220000Z AUTO 04004KT 6000 NSC 03/01 Q1032=

Extra information for LFGJ:More info

Metar Taf Metar & Taf Last 4 Metars F.Rules Stats Wind Profile Meteogram Temp Stats Airport Information Weather charts Add Link Nearby VenuesMetar ALERT Operation Metar Decoded Social comments